createdAt,value
2022-11-05T00:02:27.527Z,63.08
2022-11-05T00:05:12.932Z,62.41
2022-11-05T00:08:00.052Z,62.07
2022-11-05T00:10:29.320Z,62.47
2022-11-05T00:13:17.450Z,61.95
2022-11-05T00:16:02.490Z,62.77
2022-11-05T00:18:30.348Z,64.28
2022-11-05T00:20:58.154Z,64.13
2022-11-05T00:23:43.519Z,63.56
2022-11-05T00:26:12.412Z,62.57
2022-11-05T00:28:43.906Z,63.39
2022-11-05T00:31:13.882Z,63.73
2022-11-05T00:33:43.668Z,64.14
2022-11-05T00:36:12.271Z,64.12
2022-11-05T00:38:40.093Z,63.97
2022-11-05T00:41:07.855Z,65.55
2022-11-05T00:43:53.291Z,65.59
2022-11-05T00:46:23.327Z,66.02
2022-11-05T00:49:08.447Z,66.50
2022-11-05T00:51:36.200Z,66.74
2022-11-05T00:54:04.019Z,66.43
2022-11-05T00:56:31.749Z,65.41
2022-11-05T00:58:59.473Z,65.47
2022-11-05T01:01:28.685Z,65.75
2022-11-05T01:03:56.575Z,65.80
2022-11-05T01:06:25.178Z,65.21
2022-11-05T01:08:52.894Z,65.16
2022-11-05T01:11:33.980Z,64.94
2022-11-05T01:14:02.575Z,65.49
2022-11-05T01:16:31.855Z,64.73
2022-11-05T01:18:59.669Z,65.07
2022-11-05T01:21:27.422Z,65.30
2022-11-05T01:23:55.277Z,64.92
2022-11-05T01:26:23.215Z,65.18
2022-11-05T01:28:51.961Z,64.86
2022-11-05T01:31:19.786Z,64.82
2022-11-05T01:33:48.949Z,65.04
2022-11-05T01:36:16.958Z,64.44
2022-11-05T01:38:44.720Z,64.95
2022-11-05T01:41:12.581Z,64.77
2022-11-05T01:43:49.092Z,64.90
2022-11-05T01:46:19.551Z,64.80
2022-11-05T01:48:49.707Z,64.86
2022-11-05T01:51:19.609Z,63.96
2022-11-05T01:53:50.284Z,63.31
2022-11-05T01:56:19.723Z,63.61
2022-11-05T01:58:51.827Z,64.58
2022-11-05T02:01:20.124Z,64.40
2022-11-05T02:03:50.460Z,64.63
2022-11-05T02:06:18.660Z,64.68
2022-11-05T02:08:55.258Z,63.78
2022-11-05T02:11:23.136Z,63.85
2022-11-05T02:13:51.860Z,64.38
2022-11-05T02:16:29.029Z,64.27
2022-11-05T02:19:02.159Z,64.18
2022-11-05T02:22:00.239Z,64.04
2022-11-05T02:24:54.684Z,64.67
2022-11-05T02:27:34.580Z,62.95
2022-11-05T02:30:08.567Z,63.47
2022-11-05T02:32:59.445Z,62.47
2022-11-05T02:35:36.967Z,61.12
2022-11-05T02:38:08.507Z,60.82
2022-11-05T02:40:42.001Z,61.04
2022-11-05T02:43:16.153Z,62.36
2022-11-05T02:45:49.382Z,62.71
2022-11-05T02:48:20.864Z,61.78
2022-11-05T02:50:50.286Z,61.94
2022-11-05T02:53:20.215Z,62.15
2022-11-05T02:55:48.390Z,62.25
2022-11-05T02:58:15.943Z,62.00
2022-11-05T03:00:46.137Z,62.33
2022-11-05T03:03:15.838Z,62.33
2022-11-05T03:05:46.074Z,62.67
2022-11-05T03:08:14.915Z,63.74
2022-11-05T03:10:42.883Z,64.00
2022-11-05T03:13:13.217Z,65.99
2022-11-05T03:15:45.311Z,66.95
2022-11-05T03:18:14.606Z,66.56
2022-11-05T03:20:43.977Z,66.59
2022-11-05T03:23:14.193Z,66.05
2022-11-05T03:25:43.652Z,65.45
2022-11-05T03:28:11.272Z,65.04
2022-11-05T03:30:38.887Z,65.87
2022-11-05T03:33:07.384Z,67.18
2022-11-05T03:35:35.643Z,65.99
2022-11-05T03:38:03.839Z,65.59
2022-11-05T03:40:33.440Z,65.14
2022-11-05T03:43:01.012Z,64.33
2022-11-05T03:45:29.456Z,64.68
2022-11-05T03:47:57.927Z,64.82
2022-11-05T03:50:27.355Z,64.32
2022-11-05T03:52:55.364Z,65.50
2022-11-05T03:55:23.490Z,66.30
2022-11-05T03:57:52.712Z,67.17
2022-11-05T04:00:20.346Z,65.99
2022-11-05T04:02:48.084Z,65.85
2022-11-05T04:05:15.851Z,64.91
2022-11-05T04:08:01.296Z,65.16
2022-11-05T04:10:46.352Z,65.90
2022-11-05T04:13:27.828Z,64.99
2022-11-05T04:16:14.483Z,64.60
2022-11-05T04:18:42.537Z,63.88
2022-11-05T04:21:28.675Z,64.12
2022-11-05T04:24:11.681Z,64.43
2022-11-05T04:26:40.801Z,64.43
2022-11-05T04:29:27.283Z,64.89
2022-11-05T04:31:55.485Z,65.45
2022-11-05T04:34:23.526Z,65.09
2022-11-05T04:36:51.655Z,65.55
2022-11-05T04:39:20.114Z,64.79
2022-11-05T04:41:48.933Z,64.94
2022-11-05T04:44:18.166Z,64.54
2022-11-05T04:46:45.905Z,64.44
2022-11-05T04:49:13.749Z,65.23
2022-11-05T04:51:41.487Z,65.76
2022-11-05T04:54:09.217Z,65.48
2022-11-05T04:56:36.892Z,64.96
2022-11-05T04:59:04.604Z,65.95
2022-11-05T05:01:33.854Z,66.86
2022-11-05T05:04:01.657Z,65.11
2022-11-05T05:06:29.496Z,66.00
2022-11-05T05:08:57.230Z,67.28
2022-11-05T05:11:24.987Z,69.99
2022-11-05T05:13:52.752Z,68.19
2022-11-05T05:16:22.165Z,66.94
2022-11-05T05:18:51.808Z,67.25
2022-11-05T05:21:38.729Z,67.71
2022-11-05T05:24:08.686Z,68.07
2022-11-05T05:26:36.627Z,67.99
2022-11-05T05:29:04.962Z,67.79
2022-11-05T05:31:32.810Z,69.46
2022-11-05T05:34:02.063Z,69.57
2022-11-05T05:36:29.923Z,65.93
2022-11-05T05:38:57.745Z,64.88
2022-11-05T05:41:25.823Z,64.84
2022-11-05T05:43:53.623Z,67.10
2022-11-05T05:46:21.370Z,66.70
2022-11-05T05:48:50.113Z,68.08
2022-11-05T05:51:19.930Z,64.31
2022-11-05T05:53:47.944Z,64.11
2022-11-05T05:56:19.160Z,64.95
2022-11-05T05:58:47.114Z,64.59
2022-11-05T06:01:19.336Z,64.56
2022-11-05T06:03:48.491Z,63.45
2022-11-05T06:06:19.598Z,62.77
2022-11-05T06:08:49.446Z,62.63
2022-11-05T06:11:17.393Z,62.86
2022-11-05T06:13:45.594Z,62.97
2022-11-05T06:16:13.386Z,63.14
2022-11-05T06:18:41.264Z,63.05
2022-11-05T06:21:10.652Z,62.76
2022-11-05T06:23:40.202Z,63.78
2022-11-05T06:26:11.131Z,63.82
2022-11-05T06:28:39.137Z,63.90
2022-11-05T06:31:06.942Z,64.49
2022-11-05T06:33:34.713Z,65.44
2022-11-05T06:36:03.112Z,65.01
2022-11-05T06:38:33.489Z,64.83
2022-11-05T06:41:05.825Z,64.80
2022-11-05T06:43:38.481Z,65.83
2022-11-05T06:46:06.538Z,66.25
2022-11-05T06:48:34.455Z,66.46
2022-11-05T06:51:02.304Z,67.44
2022-11-05T06:53:30.478Z,67.04
2022-11-05T06:55:58.369Z,66.14
2022-11-05T06:58:26.753Z,66.72
2022-11-05T07:00:56.107Z,67.29
2022-11-05T07:03:23.949Z,66.44
2022-11-05T07:05:52.173Z,65.62
2022-11-05T07:08:20.013Z,66.69
2022-11-05T07:10:47.803Z,66.97
2022-11-05T07:13:16.283Z,66.53
2022-11-05T07:15:44.442Z,66.32
2022-11-05T07:18:13.672Z,66.32
2022-11-05T07:20:41.540Z,65.95
2022-11-05T07:23:12.289Z,65.52
2022-11-05T07:25:40.944Z,65.68
2022-11-05T07:28:08.999Z,65.76
2022-11-05T07:30:37.380Z,65.79
2022-11-05T07:33:05.477Z,65.22
2022-11-05T07:35:34.800Z,64.97
2022-11-05T07:38:02.755Z,64.87
2022-11-05T07:40:31.138Z,64.71
2022-11-05T07:43:00.553Z,65.57
2022-11-05T07:45:30.222Z,65.48
2022-11-05T07:48:00.368Z,64.64
2022-11-05T07:50:29.966Z,65.55
2022-11-05T07:53:02.609Z,65.97
2022-11-05T07:55:30.874Z,65.48
2022-11-05T07:57:58.688Z,64.91
2022-11-05T08:00:27.722Z,65.81
2022-11-05T08:03:07.143Z,65.38
2022-11-05T08:05:37.630Z,66.28
2022-11-05T08:08:07.554Z,66.49
2022-11-05T08:10:36.169Z,64.70
2022-11-05T08:13:04.236Z,64.77
2022-11-05T08:15:32.658Z,63.82
2022-11-05T08:18:00.774Z,64.16
2022-11-05T08:20:29.006Z,64.10
2022-11-05T08:22:56.937Z,64.21
2022-11-05T08:25:26.666Z,63.82
2022-11-05T08:27:58.361Z,62.89
2022-11-05T08:30:26.863Z,62.58
2022-11-05T08:32:58.142Z,62.79
2022-11-05T08:35:26.040Z,62.02
2022-11-05T08:37:56.716Z,61.97
2022-11-05T08:40:24.513Z,62.67
2022-11-05T08:42:53.484Z,62.67
2022-11-05T08:45:21.138Z,62.66
2022-11-05T08:47:48.808Z,62.81
2022-11-05T08:50:16.454Z,62.79
2022-11-05T08:52:44.083Z,62.70
2022-11-05T08:55:11.753Z,62.53
2022-11-05T08:57:39.451Z,62.10
2022-11-05T09:00:09.755Z,61.58
2022-11-05T09:02:37.535Z,60.94
2022-11-05T09:05:05.636Z,60.30
2022-11-05T09:07:33.315Z,61.01
2022-11-05T09:10:01.048Z,59.94
2022-11-05T09:12:28.830Z,59.53
2022-11-05T09:14:56.554Z,65.17
2022-11-05T09:17:25.598Z,66.82
2022-11-05T09:19:53.269Z,67.38
2022-11-05T09:22:20.912Z,67.34
2022-11-05T09:24:48.645Z,66.77
2022-11-05T09:27:16.298Z,63.81
2022-11-05T09:29:43.935Z,66.69
2022-11-05T09:32:12.047Z,66.76
2022-11-05T09:34:44.328Z,66.60
2022-11-05T09:37:12.200Z,66.51
2022-11-05T09:39:39.847Z,67.31
2022-11-05T09:42:08.374Z,66.83
2022-11-05T09:44:38.469Z,67.49
2022-11-05T09:47:06.703Z,67.48
2022-11-05T09:49:35.530Z,66.63
2022-11-05T09:52:04.703Z,65.77
2022-11-05T09:54:33.223Z,65.42
2022-11-05T09:57:01.168Z,65.58
2022-11-05T09:59:30.446Z,64.83
2022-11-05T10:01:59.934Z,63.68
2022-11-05T10:04:27.855Z,62.98
2022-11-05T10:06:56.645Z,62.10
2022-11-05T10:09:26.572Z,61.96
2022-11-05T10:11:55.461Z,62.40
2022-11-05T10:14:24.244Z,61.05
2022-11-05T10:16:53.206Z,60.80
2022-11-05T10:19:24.543Z,60.37
2022-11-05T10:22:06.181Z,59.66
2022-11-05T10:24:35.949Z,59.34
2022-11-05T10:27:03.563Z,58.50
2022-11-05T10:29:32.480Z,58.69
2022-11-05T10:32:00.714Z,59.20
2022-11-05T10:34:30.218Z,57.08
2022-11-05T10:36:57.920Z,55.44
2022-11-05T10:39:27.652Z,53.80
2022-11-05T10:42:11.281Z,53.07
2022-11-05T10:44:41.109Z,50.64
2022-11-05T10:47:29.841Z,49.74
2022-11-05T10:49:58.886Z,49.43
2022-11-05T10:52:27.339Z,47.89
2022-11-05T10:54:56.448Z,48.59
2022-11-05T10:57:29.828Z,49.80
2022-11-05T11:00:11.479Z,50.72
2022-11-05T11:02:39.131Z,51.05
2022-11-05T11:05:07.050Z,49.18
2022-11-05T11:07:34.717Z,47.42
2022-11-05T11:10:02.396Z,47.37
2022-11-05T11:12:34.624Z,49.16
2022-11-05T11:15:06.604Z,45.28
2022-11-05T11:17:34.286Z,40.98
2022-11-05T11:20:14.753Z,43.87
2022-11-05T11:22:42.420Z,42.84
2022-11-05T11:25:19.595Z,41.56
2022-11-05T11:27:48.610Z,43.21
2022-11-05T11:30:17.242Z,42.87
2022-11-05T11:32:44.909Z,43.83
2022-11-05T11:35:19.366Z,45.31
2022-11-05T11:37:47.103Z,46.79
2022-11-05T11:40:15.695Z,48.16
2022-11-05T11:42:46.865Z,49.44
2022-11-05T11:45:20.029Z,50.19
2022-11-05T11:47:48.501Z,50.28
2022-11-05T11:50:30.991Z,51.18
2022-11-05T11:53:05.467Z,51.16
2022-11-05T11:55:33.232Z,50.67
2022-11-05T11:58:06.210Z,48.53
2022-11-05T12:00:35.704Z,46.65
2022-11-05T12:03:10.444Z,48.85
2022-11-05T12:05:40.884Z,47.42
2022-11-05T12:08:20.238Z,47.70
2022-11-05T12:10:52.484Z,47.45
2022-11-05T12:13:29.757Z,46.56
2022-11-05T12:15:59.251Z,40.93
2022-11-05T12:18:29.048Z,44.16
2022-11-05T12:21:04.021Z,45.54
2022-11-05T12:23:38.715Z,45.44
2022-11-05T12:26:07.731Z,44.65
2022-11-05T12:29:12.374Z,44.50
2022-11-05T12:31:36.437Z,45.13
2022-11-05T12:34:10.869Z,44.72
2022-11-05T12:36:55.931Z,44.69
2022-11-05T12:39:27.577Z,44.37
2022-11-05T12:41:56.469Z,46.11
2022-11-05T12:44:32.555Z,46.78
2022-11-05T12:47:03.964Z,47.48
2022-11-05T12:49:37.888Z,48.01
2022-11-05T12:52:08.998Z,48.57
2022-11-05T12:54:41.921Z,49.07
2022-11-05T12:57:10.792Z,49.85
2022-11-05T12:59:38.641Z,50.65
2022-11-05T13:02:09.660Z,50.90
2022-11-05T13:04:39.398Z,51.59
2022-11-05T13:07:07.867Z,52.39
2022-11-05T13:09:36.385Z,51.37
2022-11-05T13:12:05.447Z,51.44
2022-11-05T13:14:34.740Z,51.44
2022-11-05T13:17:03.600Z,51.37
2022-11-05T13:19:33.596Z,51.59
2022-11-05T13:22:01.691Z,51.45
2022-11-05T13:24:29.952Z,50.95
2022-11-05T13:26:59.233Z,50.93
2022-11-05T13:29:28.195Z,51.47
2022-11-05T13:31:57.782Z,52.26
2022-11-05T13:34:25.443Z,53.02
2022-11-05T13:37:13.243Z,53.82
2022-11-05T13:39:43.677Z,53.98
2022-11-05T13:42:16.428Z,53.60
2022-11-05T13:44:59.559Z,53.73
2022-11-05T13:47:37.183Z,54.04
2022-11-05T13:50:14.214Z,54.37
2022-11-05T13:52:53.507Z,54.65
2022-11-05T13:55:26.476Z,54.11
2022-11-05T13:58:15.090Z,53.37
2022-11-05T14:00:43.211Z,53.44
2022-11-05T14:03:16.001Z,52.47
2022-11-05T14:05:43.631Z,51.21
2022-11-05T14:08:13.231Z,50.00
2022-11-05T14:10:41.541Z,49.46
2022-11-05T14:13:17.833Z,47.80
2022-11-05T14:15:53.768Z,45.51
2022-11-05T14:18:35.536Z,46.95
2022-11-05T14:21:03.914Z,49.02
2022-11-05T14:23:42.331Z,50.47
2022-11-05T14:26:14.582Z,50.96
2022-11-05T14:28:46.142Z,52.55
2022-11-05T14:31:41.161Z,53.75
2022-11-05T14:34:20.107Z,54.52
2022-11-05T14:36:47.938Z,54.57
2022-11-05T14:39:23.641Z,54.39
2022-11-05T14:41:58.332Z,55.61
2022-11-05T14:44:26.271Z,55.39
2022-11-05T14:46:54.416Z,55.74
2022-11-05T14:49:22.568Z,55.94
2022-11-05T14:51:50.506Z,55.77
2022-11-05T14:54:20.066Z,55.59
2022-11-05T14:56:55.887Z,55.39
2022-11-05T14:59:47.992Z,56.59
2022-11-05T15:02:16.313Z,56.99
2022-11-05T15:04:45.556Z,57.61
2022-11-05T15:07:15.117Z,58.33
2022-11-05T15:09:43.561Z,57.91
2022-11-05T15:12:14.804Z,58.75
2022-11-05T15:14:48.314Z,58.93
2022-11-05T15:17:17.741Z,59.22
2022-11-05T15:19:45.365Z,59.07
2022-11-05T15:22:15.053Z,59.17
2022-11-05T15:24:42.958Z,59.25
2022-11-05T15:27:13.029Z,59.78
2022-11-05T15:29:42.984Z,59.77
2022-11-05T15:32:13.916Z,59.11
2022-11-05T15:34:41.986Z,59.91
2022-11-05T15:37:21.565Z,60.13
2022-11-05T15:39:49.818Z,60.75
2022-11-05T15:42:18.387Z,59.75
2022-11-05T15:44:48.025Z,60.64
2022-11-05T15:47:17.382Z,59.77
2022-11-05T15:49:45.804Z,60.03
2022-11-05T15:52:14.056Z,60.40
2022-11-05T15:54:41.843Z,60.64
2022-11-05T15:57:16.263Z,60.18
2022-11-05T15:59:46.731Z,60.34
2022-11-05T16:02:35.586Z,60.09
2022-11-05T16:05:06.774Z,60.50
2022-11-05T16:07:34.541Z,60.90
2022-11-05T16:10:07.373Z,61.18
2022-11-05T16:12:39.218Z,61.46
2022-11-05T16:15:19.943Z,61.30
2022-11-05T16:17:48.934Z,62.03
2022-11-05T16:20:22.743Z,62.49
2022-11-05T16:22:50.918Z,63.72
2022-11-05T16:25:22.971Z,64.20
2022-11-05T16:27:50.567Z,63.80
2022-11-05T16:30:18.559Z,63.87
2022-11-05T16:32:46.354Z,63.81
2022-11-05T16:35:18.024Z,63.55
2022-11-05T16:37:51.866Z,63.70
2022-11-05T16:40:20.677Z,63.73
2022-11-05T16:42:48.670Z,63.58
2022-11-05T16:45:17.864Z,64.20
2022-11-05T16:47:45.796Z,63.69
2022-11-05T16:50:21.612Z,63.35
2022-11-05T16:52:50.804Z,63.39
2022-11-05T16:55:18.737Z,63.46
2022-11-05T16:57:46.869Z,63.24
2022-11-05T17:00:15.387Z,63.16
2022-11-05T17:02:43.192Z,63.02
2022-11-05T17:05:14.074Z,62.84
2022-11-05T17:07:41.738Z,63.29
2022-11-05T17:10:11.107Z,63.54
2022-11-05T17:12:38.772Z,63.76
2022-11-05T17:15:12.368Z,63.58
2022-11-05T17:17:39.947Z,64.00
2022-11-05T17:20:10.122Z,63.61
2022-11-05T17:22:37.774Z,63.37
2022-11-05T17:25:05.993Z,63.20
2022-11-05T17:27:35.032Z,63.58
2022-11-05T17:30:02.761Z,62.92
2022-11-05T17:32:30.684Z,62.72
2022-11-05T17:34:58.436Z,62.88
2022-11-05T17:37:26.072Z,62.78
2022-11-05T17:39:53.721Z,62.33
2022-11-05T17:42:21.334Z,62.19
2022-11-05T17:44:50.283Z,61.81
2022-11-05T17:47:17.905Z,61.11
2022-11-05T17:49:45.503Z,61.59
2022-11-05T17:52:13.051Z,62.42
2022-11-05T17:54:40.623Z,62.83
2022-11-05T17:57:08.280Z,62.67
2022-11-05T17:59:35.943Z,62.70
2022-11-05T18:02:05.179Z,62.82
2022-11-05T18:04:33.372Z,62.61
2022-11-05T18:07:01.007Z,63.00
2022-11-05T18:09:28.697Z,62.90
2022-11-05T18:11:56.365Z,62.50
2022-11-05T18:14:24.483Z,62.54
2022-11-05T18:16:52.151Z,62.84
2022-11-05T18:19:21.223Z,63.06
2022-11-05T18:21:48.883Z,62.15
2022-11-05T18:24:16.534Z,62.12
2022-11-05T18:26:44.211Z,62.85
2022-11-05T18:29:11.871Z,62.91
2022-11-05T18:31:39.545Z,63.39
2022-11-05T18:34:07.777Z,63.07
2022-11-05T18:36:36.898Z,63.00
2022-11-05T18:39:05.197Z,63.16
2022-11-05T18:41:32.885Z,63.00
2022-11-05T18:44:00.799Z,63.41
2022-11-05T18:46:56.037Z,63.87
2022-11-05T18:49:16.202Z,63.53
2022-11-05T18:51:45.286Z,63.51
2022-11-05T18:54:12.851Z,63.97
2022-11-05T18:56:45.318Z,63.87
2022-11-05T18:59:35.332Z,63.89
2022-11-05T19:02:01.231Z,64.05
2022-11-05T19:04:30.542Z,64.19
2022-11-05T19:07:04.511Z,64.34
2022-11-05T19:09:32.935Z,64.87
2022-11-05T19:12:00.924Z,64.50
2022-11-05T19:14:30.013Z,64.28
2022-11-05T19:16:57.768Z,64.24
2022-11-05T19:19:25.764Z,63.56
2022-11-05T19:21:53.423Z,64.47
2022-11-05T19:24:22.476Z,65.04
2022-11-05T19:26:50.376Z,65.05
2022-11-05T19:29:18.037Z,65.22
2022-11-05T19:31:45.767Z,65.54
2022-11-05T19:34:14.747Z,65.52
2022-11-05T19:36:42.456Z,65.17
2022-11-05T19:39:10.985Z,65.65
2022-11-05T19:41:40.037Z,65.51
2022-11-05T19:44:07.754Z,65.39
2022-11-05T19:46:35.543Z,65.57
2022-11-05T19:49:03.316Z,65.76
2022-11-05T19:51:31.896Z,64.97
2022-11-05T19:53:59.877Z,64.73
2022-11-05T19:56:28.385Z,65.80
2022-11-05T19:58:57.554Z,66.07
2022-11-05T20:01:25.711Z,66.04
2022-11-05T20:03:53.579Z,66.26
2022-11-05T20:06:22.126Z,66.19
2022-11-05T20:09:21.185Z,66.14
2022-11-05T20:11:37.979Z,66.55
2022-11-05T20:14:07.262Z,66.73
2022-11-05T20:16:38.133Z,66.44
2022-11-05T20:19:06.491Z,66.83
2022-11-05T20:21:34.264Z,67.27
2022-11-05T20:24:02.465Z,67.26
2022-11-05T20:26:30.217Z,67.42
2022-11-05T20:28:57.848Z,67.52
2022-11-05T20:31:26.823Z,67.72
2022-11-05T20:33:54.509Z,67.43
2022-11-05T20:36:23.121Z,67.41
2022-11-05T20:38:50.976Z,66.71
2022-11-05T20:41:18.733Z,66.54
2022-11-05T20:43:47.946Z,66.79
2022-11-05T20:46:16.430Z,65.17
2022-11-05T20:48:45.694Z,65.76
2022-11-05T20:51:13.980Z,66.30
2022-11-05T20:53:41.634Z,65.89
2022-11-05T20:56:09.580Z,66.06
2022-11-05T20:58:37.931Z,65.81
2022-11-05T21:01:06.153Z,65.67
2022-11-05T21:03:34.423Z,66.92
2022-11-05T21:06:05.568Z,66.38
2022-11-05T21:08:33.229Z,66.43
2022-11-05T21:11:00.901Z,66.61
2022-11-05T21:13:28.733Z,66.51
2022-11-05T21:15:56.744Z,65.70
2022-11-05T21:18:25.086Z,66.39
2022-11-05T21:20:52.736Z,66.93
2022-11-05T21:23:21.798Z,66.52
2022-11-05T21:25:49.537Z,66.30
2022-11-05T21:28:17.132Z,65.53
2022-11-05T21:30:45.768Z,64.96
2022-11-05T21:33:13.646Z,65.50
2022-11-05T21:35:43.787Z,66.58
2022-11-05T21:38:12.002Z,66.60
2022-11-05T21:40:41.399Z,66.85
2022-11-05T21:43:09.482Z,66.73
2022-11-05T21:45:39.038Z,66.85
2022-11-05T21:48:06.921Z,67.71
2022-11-05T21:50:51.825Z,68.19
2022-11-05T21:53:36.729Z,68.34
2022-11-05T21:56:25.599Z,68.03
2022-11-05T21:59:22.059Z,68.01
2022-11-05T22:01:49.926Z,68.34
2022-11-05T22:04:17.567Z,68.47
2022-11-05T22:06:45.231Z,68.66
2022-11-05T22:09:13.312Z,68.74
2022-11-05T22:11:42.282Z,68.78
2022-11-05T22:14:09.951Z,68.50
2022-11-05T22:16:37.611Z,69.20
2022-11-05T22:19:05.235Z,69.15
2022-11-05T22:21:32.893Z,68.68
2022-11-05T22:24:00.498Z,69.05
2022-11-05T22:26:28.172Z,69.01
2022-11-05T22:28:57.393Z,69.11
2022-11-05T22:31:25.033Z,69.52
2022-11-05T22:33:52.738Z,69.83
2022-11-05T22:36:20.444Z,70.35
2022-11-05T22:38:48.021Z,70.79
2022-11-05T22:41:17.443Z,69.99
2022-11-05T22:43:45.076Z,68.66
2022-11-05T22:46:14.641Z,69.06
2022-11-05T22:48:43.143Z,69.63
2022-11-05T22:51:11.585Z,69.80
2022-11-05T22:53:40.014Z,69.76
2022-11-05T22:56:08.734Z,69.60
2022-11-05T22:58:36.424Z,70.16
2022-11-05T23:01:04.496Z,70.39
2022-11-05T23:03:34.233Z,70.89
2022-11-05T23:06:02.526Z,70.83
2022-11-05T23:08:47.982Z,71.08
2022-11-05T23:11:33.532Z,71.52
2022-11-05T23:14:01.325Z,71.89
2022-11-05T23:16:46.725Z,71.96
2022-11-05T23:19:33.096Z,72.20
2022-11-05T23:22:18.315Z,72.57
2022-11-05T23:24:46.020Z,72.50
2022-11-05T23:27:13.729Z,71.93
2022-11-05T23:29:41.410Z,71.25
2022-11-05T23:32:26.991Z,71.65
2022-11-05T23:34:56.611Z,72.11
2022-11-05T23:37:42.260Z,72.58
2022-11-05T23:40:11.463Z,72.81
2022-11-05T23:42:56.842Z,73.19
2022-11-05T23:45:41.651Z,73.61
2022-11-05T23:48:18.709Z,73.37
2022-11-05T23:50:49.424Z,73.62
2022-11-05T23:53:17.121Z,73.52
2022-11-05T23:55:44.871Z,73.56
2022-11-05T23:58:12.950Z,73.80
